^^
Paulen-Weather Station Historical Data
Daily Summary for May 19, 2022 Units:  Metric    English   Both
Daily Weekly Monthly Yearly Custom
  High: Low: Average:
Temperature: 14 °C 9 °C 11.5 °C
Dew Point: 12 °C 9 °C 10.5 °C
Humidity: 98% 85% 93%
Wind Speed: 17km/h 0km/h 6.8km/h
Wind Gust: 15km/h - -
Wind- - WSW
Pressure: 1019.54 hPa 1014.87 hPa -
Precipitation: 6.6 mm    
Historical Graphs
 
 
Tabular Data for May 19, 2022
Time Temperature Dew Point Pressure Wind Wind Speed Wind Gust Humidity Rainfall Rate (Hourly) solar
00:04 11 °C 11 °C 1019.54 hPa SE 6 km/h 5 km/h 95% 0 mm 0 W/m2
00:09 11 °C 11 °C 1019.54 hPa SE 6 km/h 5 km/h 96% 0 mm 0 W/m2
00:14 11 °C 11 °C 1019.51 hPa SE 6 km/h 5 km/h 96% 0 mm 0 W/m2
00:19 11 °C 11 °C 1019.47 hPa ENE 6 km/h 5 km/h 96% 0 mm 0 W/m2
00:24 11 °C 11 °C 1019.44 hPa N 6 km/h 5 km/h 96% 0 mm 0 W/m2
00:29 11 °C 11 °C 1019.34 hPa N 3 km/h 2 km/h 95% 0 mm 0 W/m2
00:34 11 °C 11 °C 1019.3 hPa Calm     95% 0 mm 0 W/m2
00:39 11 °C 11 °C 1019.3 hPa Calm     96% 0 mm 0 W/m2
00:44 11 °C 10 °C 1019.27 hPa Calm     96% 0 mm 0 W/m2
00:49 11 °C 10 °C 1019.2 hPa Calm     96% 0 mm 0 W/m2
00:54 11 °C 10 °C 1019.17 hPa Calm     96% 0 mm 0 W/m2
00:59 11 °C 10 °C 1019.13 hPa Calm     96% 0 mm 0 W/m2
01:04 11 °C 10 °C 1019.13 hPa Calm     96% 0 mm 0 W/m2
01:09 11 °C 10 °C 1019.17 hPa Calm     96% 0 mm 0 W/m2
01:14 11 °C 10 °C 1019.1 hPa Calm     96% 0 mm 0 W/m2
01:19 11 °C 10 °C 1019.07 hPa Calm     96% 0 mm 0 W/m2
01:24 11 °C 10 °C 1019.1 hPa Calm     96% 0 mm 0 W/m2
01:29 11 °C 10 °C 1019.07 hPa Calm     96% 0 mm 0 W/m2
01:34 11 °C 10 °C 1019.03 hPa Calm     96% 0 mm 0 W/m2
01:39 11 °C 10 °C 1019.03 hPa Calm     96% 0 mm 0 W/m2
01:44 10 °C 10 °C 1019.07 hPa Calm     96% 0 mm 0 W/m2
01:49 10 °C 10 °C 1019.03 hPa Calm     96% 0 mm 0 W/m2
01:54 10 °C 10 °C 1019.03 hPa Calm     96% 0 mm 0 W/m2
01:59 10 °C 10 °C 1018.96 hPa Calm     97% 0 mm 0 W/m2
02:04 10 °C 10 °C 1018.83 hPa Calm     96% 0 mm 0 W/m2
02:09 10 °C 10 °C 1018.76 hPa Calm     96% 0 mm 0 W/m2
02:14 10 °C 10 °C 1018.76 hPa Calm     97% 0 mm 0 W/m2
02:19 10 °C 10 °C 1018.66 hPa Calm     97% 0 mm 0 W/m2
02:24 10 °C 10 °C 1018.69 hPa Calm     97% 0 mm 0 W/m2
02:29 10 °C 10 °C 1018.76 hPa Calm     97% 0 mm 0 W/m2
02:34 10 °C 10 °C 1018.73 hPa Calm     97% 0 mm 0 W/m2
02:39 10 °C 10 °C 1018.83 hPa Calm     97% 0 mm 0 W/m2
02:44 10 °C 10 °C 1018.8 hPa Calm     97% 0 mm 0 W/m2
02:49 10 °C 10 °C 1018.8 hPa Calm     97% 0 mm 0 W/m2
02:54 10 °C 9 °C 1018.59 hPa Calm     97% 0 mm 0 W/m2
02:59 10 °C 9 °C 1018.59 hPa Calm     97% 0 mm 0 W/m2
03:04 10 °C 9 °C 1018.63 hPa Calm     97% 0 mm 0 W/m2
03:09 10 °C 9 °C 1018.59 hPa Calm     97% 0 mm 0 W/m2
03:14 10 °C 9 °C 1018.46 hPa Calm     97% 0 mm 0 W/m2
03:19 10 °C 9 °C 1018.46 hPa Calm     97% 0 mm 0 W/m2
03:24 10 °C 9 °C 1018.42 hPa Calm     97% 0 mm 0 W/m2
03:29 10 °C 9 °C 1018.49 hPa Calm     97% 0 mm 0 W/m2
03:34 10 °C 9 °C 1018.49 hPa Calm     97% 0 mm 0 W/m2
03:39 10 °C 9 °C 1018.39 hPa Calm     97% 0 mm 0 W/m2
03:44 10 °C 9 °C 1018.19 hPa N 7 km/h 9 km/h 98% 0 mm 0 W/m2
03:49 10 °C 9 °C 1018.25 hPa N 7 km/h 8 km/h 98% 0 mm 0 W/m2
03:54 10 °C 9 °C 1018.25 hPa N 5 km/h 4 km/h 98% 0 mm 0 W/m2
03:59 10 °C 9 °C 1018.25 hPa N 6 km/h 4 km/h 98% 0 mm 0 W/m2
04:04 10 °C 10 °C 1018.19 hPa N 6 km/h 3 km/h 98% 0 mm 0 W/m2
04:09 10 °C 10 °C 1018.12 hPa N 4 km/h 4 km/h 98% 0 mm 0 W/m2
04:14 10 °C 9 °C 1018.08 hPa NNW 7 km/h 7 km/h 98% 0 mm 0 W/m2
04:19 10 °C 9 °C 1018.08 hPa NNW 5 km/h 6 km/h 98% 0 mm 0 W/m2
04:24 10 °C 9 °C 1017.78 hPa N 2 km/h 2 km/h 98% 0 mm 0 W/m2
04:29 10 °C 9 °C 1017.68 hPa N 6 km/h 5 km/h 98% 0 mm 0 W/m2
04:34 10 °C 9 °C 1017.61 hPa N 7 km/h 6 km/h 98% 0 mm 0 W/m2
04:39 10 °C 9 °C 1017.54 hPa N 11 km/h 12 km/h 98% 0 mm 0 W/m2
04:44 10 °C 9 °C 1017.61 hPa N 14 km/h 12 km/h 98% 0 mm 0 W/m2
04:49 9 °C 9 °C 1017.75 hPa N 10 km/h 8 km/h 98% 0 mm 0 W/m2
04:54 9 °C 9 °C 1017.81 hPa N 12 km/h 11 km/h 98% 0 mm 0 W/m2
04:59 10 °C 9 °C 1017.71 hPa N 11 km/h 10 km/h 98% 0 mm 0 W/m2
05:04 10 °C 9 °C 1017.64 hPa N 9 km/h 8 km/h 98% 0 mm 0 W/m2
05:09 10 °C 9 °C 1017.64 hPa N 6 km/h 4 km/h 98% 0 mm 0 W/m2
05:14 10 °C 9 °C 1017.61 hPa N 6 km/h 4 km/h 98% 0 mm 0 W/m2
05:19 10 °C 9 °C 1017.54 hPa N 5 km/h 3 km/h 98% 0 mm 0 W/m2
05:24 10 °C 9 °C 1017.54 hPa N 7 km/h 8 km/h 98% 0 mm 5 W/m2
05:29 10 °C 9 °C 1017.47 hPa NNW 11 km/h 10 km/h 98% 0 mm 7 W/m2
05:34 10 °C 9 °C 1017.51 hPa NNW 10 km/h 10 km/h 98% 0 mm 11 W/m2
05:39 10 °C 9 °C 1017.51 hPa NNW 8 km/h 9 km/h 98% 0 mm 14 W/m2
05:44 10 °C 9 °C 1017.64 hPa NNW 9 km/h 8 km/h 98% 0 mm 16 W/m2
05:49 10 °C 9 °C 1017.81 hPa NNW 8 km/h 8 km/h 98% 0 mm 18 W/m2
05:54 10 °C 9 °C 1017.91 hPa NW 8 km/h 7 km/h 97% 0 mm 19 W/m2
05:59 10 °C 9 °C 1017.98 hPa NW 8 km/h 6 km/h 97% 0 mm 19 W/m2
06:04 10 °C 9 °C 1018.02 hPa NW 7 km/h 6 km/h 97% 0 mm 19 W/m2
06:09 10 °C 9 °C 1018.02 hPa NW 3 km/h 2 km/h 97% 0 mm 25 W/m2
06:14 10 °C 10 °C 1018.02 hPa NW 5 km/h 5 km/h 97% 0 mm 32 W/m2
06:19 10 °C 10 °C 1017.98 hPa NNW 6 km/h 6 km/h 97% 0 mm 35 W/m2
06:24 10 °C 10 °C 1018.02 hPa NNW 6 km/h 6 km/h 97% 0 mm 35 W/m2
06:29 10 °C 10 °C 1017.88 hPa N 5 km/h 5 km/h 97% 0 mm 32 W/m2
06:34 10 °C 10 °C 1017.81 hPa N 7 km/h 6 km/h 97% 0 mm 28 W/m2
06:39 10 °C 10 °C 1017.78 hPa NNW 6 km/h 5 km/h 97% 0 mm 28 W/m2
06:44 10 °C 10 °C 1017.88 hPa NNW 8 km/h 9 km/h 97% 0 mm 49 W/m2
06:49 10 °C 10 °C 1017.85 hPa NNW 9 km/h 9 km/h 96% 0 mm 79 W/m2
06:54 10 °C 10 °C 1017.68 hPa N 5 km/h 3 km/h 97% 0 mm 107 W/m2
06:59 10 °C 10 °C 1017.68 hPa N 6 km/h 4 km/h 96% 0 mm 137 W/m2
07:04 10 °C 10 °C 1017.71 hPa N 8 km/h 7 km/h 96% 0 mm 130 W/m2
07:09 10 °C 10 °C 1017.75 hPa N 8 km/h 8 km/h 96% 0 mm 113 W/m2
07:14 10 °C 10 °C 1017.64 hPa N 10 km/h 9 km/h 96% 0 mm 158 W/m2
07:19 10 °C 10 °C 1017.61 hPa N 8 km/h 8 km/h 96% 0 mm 158 W/m2
07:24 10 °C 10 °C 1017.68 hPa N 6 km/h 6 km/h 96% 0 mm 160 W/m2
07:29 10 °C 10 °C 1017.64 hPa N 6 km/h 5 km/h 96% 0 mm 195 W/m2
07:34 10 °C 10 °C 1017.61 hPa N 6 km/h 5 km/h 96% 0 mm 174 W/m2
07:39 11 °C 10 °C 1017.75 hPa NNW 6 km/h 5 km/h 95% 0 mm 239 W/m2
07:44 11 °C 10 °C 1017.81 hPa N 5 km/h 4 km/h 95% 0 mm 216 W/m2
07:49 11 °C 10 °C 1017.81 hPa N 3 km/h 1 km/h 95% 0 mm 153 W/m2
07:54 11 °C 10 °C 1017.64 hPa N 4 km/h 2 km/h 95% 0 mm 230 W/m2
07:59 11 °C 10 °C 1017.68 hPa N 2 km/h 1 km/h 95% 0 mm 178 W/m2
08:04 11 °C 10 °C 1017.58 hPa N 3 km/h 2 km/h 95% 0 mm 139 W/m2
08:09 11 °C 10 °C 1017.58 hPa N 3 km/h 2 km/h 94% 0 mm 158 W/m2
08:14 11 °C 10 °C 1017.61 hPa N 1 km/h 1 km/h 94% 0 mm 163 W/m2
08:19 11 °C 10 °C 1017.64 hPa N 2 km/h 1 km/h 94% 0 mm 171 W/m2
08:24 11 °C 10 °C 1017.75 hPa N 1 km/h   94% 0 mm 278 W/m2
08:29 11 °C 10 °C 1017.78 hPa N 2 km/h 1 km/h 94% 0 mm 348 W/m2
08:34 11 °C 11 °C 1017.71 hPa N 3 km/h 3 km/h 94% 0 mm 429 W/m2
08:39 12 °C 11 °C 1017.61 hPa N 3 km/h 2 km/h 93% 0 mm 448 W/m2
08:44 12 °C 11 °C 1017.71 hPa N 1 km/h   92% 0 mm 290 W/m2
08:49 12 °C 11 °C 1017.68 hPa N 2 km/h 1 km/h 91% 0 mm 193 W/m2
08:54 12 °C 10 °C 1017.47 hPa N 5 km/h 4 km/h 91% 0 mm 223 W/m2
08:59 12 °C 10 °C 1017.58 hPa N 4 km/h 4 km/h 91% 0 mm 234 W/m2
09:04 12 °C 10 °C 1017.75 hPa N 2 km/h 2 km/h 91% 0 mm 229 W/m2
09:09 12 °C 10 °C 1017.75 hPa N 2 km/h   91% 0 mm 229 W/m2
09:14 12 °C 10 °C 1017.75 hPa N 1 km/h   91% 0 mm 204 W/m2
09:19 12 °C 10 °C 1017.75 hPa N 1 km/h 1 km/h 90% 0 mm 197 W/m2
09:24 12 °C 10 °C 1017.81 hPa Calm     90% 0 mm 216 W/m2
09:29 12 °C 10 °C 1017.85 hPa Calm     91% 0 mm 202 W/m2
09:34 12 °C 10 °C 1017.78 hPa Calm     90% 0 mm 223 W/m2
09:39 12 °C 10 °C 1017.75 hPa Calm     90% 0 mm 211 W/m2
09:44 12 °C 10 °C 1017.75 hPa Calm     89% 0 mm 146 W/m2
09:49 12 °C 10 °C 1017.71 hPa Calm     88% 0 mm 155 W/m2
09:54 12 °C 10 °C 1017.78 hPa N 1 km/h 1 km/h 88% 0 mm 151 W/m2
09:59 12 °C 10 °C 1017.85 hPa N 1 km/h 1 km/h 87% 0 mm 163 W/m2
10:04 12 °C 10 °C 1017.85 hPa Calm     88% 0 mm 163 W/m2
10:09 12 °C 11 °C 1017.85 hPa Calm     88% 0 mm 178 W/m2
10:14 13 °C 11 °C 1017.91 hPa E 1 km/h   88% 0 mm 167 W/m2
10:19 13 °C 11 °C 1017.91 hPa E 1 km/h 1 km/h 88% 0 mm 146 W/m2
10:24 13 °C 11 °C 1017.98 hPa Calm     88% 0 mm 162 W/m2
10:29 13 °C 11 °C 1017.91 hPa Calm     88% 0 mm 172 W/m2
10:34 13 °C 11 °C 1017.85 hPa Calm     87% 0 mm 165 W/m2
10:39 12 °C 11 °C 1017.81 hPa E 3 km/h 2 km/h 88% 0 mm 190 W/m2
10:44 12 °C 11 °C 1017.85 hPa E 3 km/h 2 km/h 88% 0 mm 193 W/m2
10:49 12 °C 11 °C 1017.88 hPa ESE 3 km/h 2 km/h 88% 0 mm 250 W/m2
10:54 13 °C 11 °C 1017.81 hPa ESE 4 km/h 3 km/h 88% 0 mm 246 W/m2
10:59 13 °C 11 °C 1017.81 hPa SSE 5 km/h 5 km/h 88% 0 mm 257 W/m2
11:04 13 °C 11 °C 1017.75 hPa SSE 6 km/h 4 km/h 88% 0 mm 258 W/m2
11:09 13 °C 11 °C 1017.71 hPa ESE 6 km/h 6 km/h 88% 0 mm 227 W/m2
11:14 12 °C 10 °C 1017.71 hPa NNE 6 km/h 5 km/h 88% 0 mm 258 W/m2
11:19 12 °C 11 °C 1017.71 hPa S 5 km/h 4 km/h 89% 0 mm 287 W/m2
11:24 12 °C 11 °C 1017.68 hPa S 5 km/h 4 km/h 89% 0 mm 425 W/m2
11:29 12 °C 11 °C 1017.64 hPa SSE 5 km/h 4 km/h 89% 0 mm 450 W/m2
11:34 12 °C 11 °C 1017.71 hPa SE 6 km/h 5 km/h 89% 0 mm 387 W/m2
11:44 13 °C 11 °C 1017.88 hPa SSE 7 km/h 7 km/h 89% 0 mm 533 W/m2
11:49 13 °C 11 °C 1017.98 hPa SSW 11 km/h 9 km/h 88% 0 mm 533 W/m2
11:54 12 °C 11 °C 1017.95 hPa SSE 11 km/h 10 km/h 88% 0 mm 381 W/m2
11:59 12 °C 11 °C 1017.88 hPa SSE 11 km/h 9 km/h 88% 0 mm 396 W/m2
12:04 12 °C 11 °C 1017.88 hPa SE 9 km/h 9 km/h 89% 0 mm 413 W/m2
12:09 13 °C 11 °C 1017.81 hPa N 12 km/h 11 km/h 88% 0 mm 455 W/m2
12:14 13 °C 11 °C 1017.85 hPa ESE 12 km/h 10 km/h 89% 0 mm 436 W/m2
12:19 13 °C 11 °C 1017.85 hPa NE 11 km/h 10 km/h 89% 0 mm 383 W/m2
12:24 13 °C 11 °C 1017.81 hPa N 12 km/h 10 km/h 88% 0 mm 413 W/m2
12:29 13 °C 11 °C 1017.85 hPa N 13 km/h 10 km/h 89% 0 mm 596 W/m2
12:34 13 °C 11 °C 1017.88 hPa N 13 km/h 13 km/h 88% 0 mm 489 W/m2
12:39 13 °C 11 °C 1017.81 hPa N 12 km/h 13 km/h 88% 0 mm 381 W/m2
12:44 13 °C 11 °C 1017.85 hPa N 14 km/h 13 km/h 88% 0 mm 306 W/m2
12:49 13 °C 11 °C 1017.91 hPa NNW 15 km/h 14 km/h 88% 0 mm 304 W/m2
12:54 13 °C 11 °C 1017.98 hPa N 14 km/h 14 km/h 88% 0 mm 327 W/m2
12:59 13 °C 11 °C 1018.02 hPa N 12 km/h 13 km/h 89% 0 mm 313 W/m2
13:04 13 °C 11 °C 1017.98 hPa NNW 12 km/h 13 km/h 89% 0 mm 387 W/m2
13:09 13 °C 11 °C 1017.91 hPa N 12 km/h 13 km/h 89% 0 mm 482 W/m2
13:14 13 °C 11 °C 1017.95 hPa NNW 13 km/h 11 km/h 88% 0 mm 527 W/m2
13:19 13 °C 11 °C 1017.88 hPa NW 13 km/h 11 km/h 87% 0 mm 533 W/m2
13:24 13 °C 11 °C 1017.75 hPa N 8 km/h 8 km/h 87% 0 mm 497 W/m2
13:29 13 °C 11 °C 1017.71 hPa NNW 13 km/h 10 km/h 86% 0 mm 450 W/m2
13:34 13 °C 11 °C 1017.64 hPa NW 9 km/h 7 km/h 86% 0 mm 436 W/m2
13:39 14 °C 11 °C 1017.61 hPa W 7 km/h 10 km/h 85% 0 mm 411 W/m2
13:44 13 °C 11 °C 1017.58 hPa NW 10 km/h 10 km/h 85% 0 mm 452 W/m2
13:49 14 °C 11 °C 1017.51 hPa NNW 9 km/h 7 km/h 85% 0 mm 441 W/m2
13:54 14 °C 11 °C 1017.51 hPa NW 8 km/h 7 km/h 85% 0 mm 343 W/m2
13:59 13 °C 11 °C 1017.41 hPa NW 8 km/h 5 km/h 85% 0 mm 343 W/m2
14:04 13 °C 11 °C 1017.27 hPa N 6 km/h 5 km/h 85% 0 mm 341 W/m2
14:09 13 °C 11 °C 1017.24 hPa N 7 km/h 6 km/h 86% 0 mm 341 W/m2
14:14 13 °C 11 °C 1017.24 hPa W 6 km/h 7 km/h 85% 0 mm 294 W/m2
14:19 14 °C 11 °C 1017.2 hPa W 8 km/h 7 km/h 85% 0 mm 276 W/m2
14:24 14 °C 11 °C 1017.2 hPa N 9 km/h 7 km/h 85% 0 mm 281 W/m2
14:29 14 °C 11 °C 1017.2 hPa NW 9 km/h 8 km/h 85% 0 mm 325 W/m2
14:34 14 °C 11 °C 1017.14 hPa NNW 12 km/h 10 km/h 85% 0 mm 343 W/m2
14:39 13 °C 11 °C 1017.1 hPa N 15 km/h 12 km/h 85% 0 mm 334 W/m2
14:44 13 °C 11 °C 1017.1 hPa N 15 km/h 12 km/h 86% 0 mm 373 W/m2
14:49 13 °C 11 °C 1017.03 hPa N 15 km/h 14 km/h 87% 0 mm 497 W/m2
14:54 13 °C 11 °C 1017 hPa N 14 km/h 13 km/h 88% 0 mm 457 W/m2
14:59 13 °C 11 °C 1016.93 hPa N 14 km/h 11 km/h 88% 0 mm 513 W/m2
15:04 13 °C 11 °C 1016.93 hPa N 16 km/h 14 km/h 87% 0 mm 420 W/m2
15:09 13 °C 11 °C 1017.07 hPa N 14 km/h 13 km/h 87% 0 mm 420 W/m2
15:14 13 °C 11 °C 1017.03 hPa N 13 km/h 13 km/h 87% 0 mm 330 W/m2
15:19 13 °C 11 °C 1017.03 hPa N 17 km/h 13 km/h 87% 0 mm 257 W/m2
15:24 13 °C 11 °C 1017.03 hPa NNW 13 km/h 15 km/h 87% 0 mm 221 W/m2
15:29 13 °C 11 °C 1017 hPa N 17 km/h 13 km/h 87% 0 mm 345 W/m2
15:34 13 °C 11 °C 1016.97 hPa NNW 15 km/h 13 km/h 87% 0 mm 345 W/m2
15:39 13 °C 11 °C 1016.9 hPa N 15 km/h 13 km/h 88% 0 mm 302 W/m2
15:44 13 °C 11 °C 1016.86 hPa N 16 km/h 13 km/h 88% 0 mm 323 W/m2
15:49 13 °C 11 °C 1016.8 hPa NNW 14 km/h 11 km/h 88% 0 mm 295 W/m2
15:54 13 °C 11 °C 1016.7 hPa NW 12 km/h 9 km/h 88% 0 mm 255 W/m2
15:59 13 °C 11 °C 1016.76 hPa NNW 14 km/h 14 km/h 87% 0 mm 213 W/m2
16:04 13 °C 11 °C 1016.7 hPa NNW 13 km/h 13 km/h 87% 0 mm 193 W/m2
16:09 13 °C 11 °C 1016.7 hPa N 13 km/h 12 km/h 88% 0 mm 155 W/m2
16:14 13 °C 11 °C 1016.7 hPa N 13 km/h 9 km/h 88% 0 mm 169 W/m2
16:19 13 °C 11 °C 1016.59 hPa NNW 10 km/h 7 km/h 89% 0 mm 174 W/m2
16:24 13 °C 11 °C 1016.56 hPa NNW 8 km/h 6 km/h 89% 0 mm 174 W/m2
16:29 13 °C 11 °C 1016.49 hPa WNW 9 km/h 7 km/h 89% 0 mm 176 W/m2
16:34 13 °C 11 °C 1016.46 hPa NW 7 km/h 6 km/h 89% 0 mm 178 W/m2
16:39 13 °C 11 °C 1016.39 hPa NW 9 km/h 5 km/h 89% 0 mm 163 W/m2
16:44 13 °C 11 °C 1016.36 hPa NW 7 km/h 7 km/h 89% 0 mm 130 W/m2
16:49 13 °C 11 °C 1016.32 hPa WNW 10 km/h 8 km/h 88% 0 mm 135 W/m2
16:54 13 °C 11 °C 1016.26 hPa NW 8 km/h 5 km/h 88% 0 mm 162 W/m2
16:59 13 °C 11 °C 1016.26 hPa NNW 9 km/h 8 km/h 89% 0 mm 176 W/m2
17:04 13 °C 11 °C 1016.19 hPa NNW 6 km/h 4 km/h 89% 0 mm 165 W/m2
17:09 13 °C 11 °C 1016.15 hPa WNW 7 km/h 7 km/h 88% 0 mm 98 W/m2
17:14 13 °C 11 °C 1016.19 hPa WNW 7 km/h 6 km/h 88% 0 mm 67 W/m2
17:19 13 °C 11 °C 1016.19 hPa NNW 12 km/h 11 km/h 88% 0 mm 62 W/m2
17:24 13 °C 11 °C 1016.26 hPa NNW 11 km/h 11 km/h 88% 0 mm 65 W/m2
17:29 13 °C 11 °C 1016.36 hPa N 16 km/h 13 km/h 90% 0 mm 63 W/m2
17:34 13 °C 11 °C 1016.39 hPa NW 13 km/h 10 km/h 91% 0 mm 51 W/m2
17:39 13 °C 11 °C 1016.36 hPa N 12 km/h 9 km/h 91% 0 mm 58 W/m2
17:44 13 °C 11 °C 1016.39 hPa NNW 13 km/h 9 km/h 92% 0 mm 58 W/m2
17:49 13 °C 11 °C 1016.36 hPa WNW 5 km/h 3 km/h 93% 0.2 mm 56 W/m2
17:54 13 °C 12 °C 1016.26 hPa W 4 km/h 3 km/h 94% 0.2 mm 44 W/m2
17:59 13 °C 12 °C 1016.22 hPa WNW 8 km/h 4 km/h 94% 0.2 mm 46 W/m2
18:04 12 °C 12 °C 1016.12 hPa W 6 km/h 5 km/h 94% 0.2 mm 46 W/m2
18:09 12 °C 11 °C 1016.09 hPa WNW 7 km/h 5 km/h 94% 0.2 mm 46 W/m2
18:14 12 °C 12 °C 1016.02 hPa NNW 4 km/h 2 km/h 94% 0.2 mm 46 W/m2
18:19 12 °C 12 °C 1016.05 hPa W 5 km/h 4 km/h 95% 0.2 mm 44 W/m2
18:24 12 °C 12 °C 1015.98 hPa WSW 5 km/h 3 km/h 95% 0.2 mm 40 W/m2
18:29 12 °C 12 °C 1015.95 hPa WNW 5 km/h 3 km/h 95% 0.2 mm 46 W/m2
18:34 12 °C 12 °C 1015.88 hPa W 4 km/h 2 km/h 95% 0.2 mm 49 W/m2
18:39 12 °C 12 °C 1015.82 hPa NNW 4 km/h 1 km/h 95% 0.2 mm 53 W/m2
18:44 12 °C 12 °C 1015.78 hPa NW 3 km/h 2 km/h 96% 0.2 mm 49 W/m2
18:49 12 °C 12 °C 1015.68 hPa NNW 6 km/h 6 km/h 96% 0.2 mm 44 W/m2
18:54 12 °C 12 °C 1015.68 hPa WNW 8 km/h 6 km/h 96% 0 mm 37 W/m2
18:59 12 °C 12 °C 1015.65 hPa W 7 km/h 7 km/h 96% 0 mm 37 W/m2
19:04 12 °C 12 °C 1015.54 hPa NW 7 km/h 7 km/h 96% 0 mm 32 W/m2
19:09 12 °C 12 °C 1015.41 hPa WSW 8 km/h 7 km/h 96% 0 mm 30 W/m2
19:14 12 °C 12 °C 1015.34 hPa W 8 km/h 7 km/h 96% 0 mm 30 W/m2
19:19 12 °C 11 °C 1015.31 hPa N 11 km/h 9 km/h 96% 0 mm 25 W/m2
19:24 12 °C 11 °C 1015.31 hPa N 9 km/h 8 km/h 96% 0 mm 18 W/m2
19:29 12 °C 11 °C 1015.17 hPa N 10 km/h 9 km/h 96% 0 mm 16 W/m2
19:34 12 °C 11 °C 1015.31 hPa W 10 km/h 9 km/h 96% 0 mm 14 W/m2
19:39 12 °C 11 °C 1015.44 hPa NW 10 km/h 9 km/h 96% 0 mm 14 W/m2
19:44 12 °C 11 °C 1015.48 hPa NW 10 km/h 5 km/h 96% 0 mm 11 W/m2
19:49 12 °C 11 °C 1015.58 hPa WNW 6 km/h 5 km/h 96% 0.2 mm 11 W/m2
19:54 12 °C 11 °C 1015.58 hPa WNW 6 km/h 4 km/h 96% 0.61 mm 12 W/m2
19:59 12 °C 11 °C 1015.58 hPa WNW 4 km/h 3 km/h 96% 0.99 mm 11 W/m2
20:04 12 °C 11 °C 1015.75 hPa NW 10 km/h 9 km/h 96% 1.19 mm 9 W/m2
20:09 12 °C 11 °C 1015.92 hPa NW 9 km/h 9 km/h 96% 1.4 mm 7 W/m2
20:14 11 °C 11 °C 1016.02 hPa NNW 14 km/h 10 km/h 96% 1.6 mm 0 W/m2
20:19 11 °C 11 °C 1016.12 hPa N 16 km/h 13 km/h 96% 2.01 mm 0 W/m2
20:24 11 °C 11 °C 1016.19 hPa NNW 13 km/h 8 km/h 97% 2.21 mm 0 W/m2
20:29 11 °C 11 °C 1016.26 hPa NNW 14 km/h 9 km/h 97% 2.59 mm 0 W/m2
20:34 11 °C 10 °C 1016.29 hPa NNW 13 km/h 9 km/h 97% 2.79 mm 0 W/m2
20:39 11 °C 10 °C 1016.32 hPa NNW 14 km/h 9 km/h 97% 2.79 mm 0 W/m2
20:44 11 °C 10 °C 1016.26 hPa N 15 km/h 9 km/h 97% 3 mm 0 W/m2
20:49 11 °C 10 °C 1016.09 hPa NNW 12 km/h 8 km/h 97% 3.2 mm 0 W/m2
20:54 11 °C 10 °C 1015.92 hPa NW 9 km/h 7 km/h 97% 3.2 mm 0 W/m2
20:59 11 °C 10 °C 1015.75 hPa WNW 9 km/h 7 km/h 97% 3 mm 0 W/m2
21:04 11 °C 10 °C 1015.78 hPa WNW 8 km/h 5 km/h 97% 2.79 mm 0 W/m2
21:09 11 °C 10 °C 1015.58 hPa WNW 6 km/h 3 km/h 97% 2.79 mm 5 W/m2
21:14 11 °C 10 °C 1015.51 hPa WNW 7 km/h 3 km/h 97% 2.79 mm 5 W/m2
21:19 11 °C 10 °C 1015.44 hPa W 7 km/h 7 km/h 97% 2.79 mm 5 W/m2
21:24 11 °C 10 °C 1015.41 hPa W 6 km/h 5 km/h 97% 2.79 mm 5 W/m2
21:29 11 °C 10 °C 1015.37 hPa NW 9 km/h 7 km/h 97% 2.59 mm 0 W/m2
21:34 11 °C 10 °C 1015.34 hPa NW 10 km/h 8 km/h 97% 2.39 mm 0 W/m2
21:39 11 °C 10 °C 1015.34 hPa NNW 10 km/h 8 km/h 97% 2.21 mm 0 W/m2
21:44 11 °C 11 °C 1015.34 hPa NNW 10 km/h 7 km/h 98% 2.01 mm 0 W/m2
21:49 11 °C 11 °C 1015.48 hPa WNW 11 km/h 10 km/h 98% 2.01 mm 0 W/m2
21:54 11 °C 11 °C 1015.65 hPa NNW 14 km/h 10 km/h 98% 1.8 mm 0 W/m2
21:59 11 °C 11 °C 1015.75 hPa NNW 13 km/h 12 km/h 98% 1.6 mm 0 W/m2
22:04 11 °C 11 °C 1015.82 hPa NNW 15 km/h 10 km/h 98% 1.4 mm 0 W/m2
22:09 11 °C 11 °C 1015.82 hPa NNW 7 km/h 5 km/h 98% 1.4 mm 0 W/m2
22:14 11 °C 11 °C 1015.68 hPa NW 8 km/h 6 km/h 98% 1.19 mm 0 W/m2
22:19 11 °C 11 °C 1015.54 hPa NW 10 km/h 6 km/h 98% 1.19 mm 0 W/m2
22:24 11 °C 11 °C 1015.37 hPa NNW 10 km/h 7 km/h 98% 0.79 mm 0 W/m2
22:29 11 °C 11 °C 1015.21 hPa NW 9 km/h 7 km/h 98% 0.79 mm 0 W/m2
22:34 11 °C 11 °C 1015.1 hPa WNW 7 km/h 5 km/h 98% 0.79 mm 0 W/m2
22:39 11 °C 11 °C 1015.07 hPa WNW 5 km/h 5 km/h 98% 0.79 mm 0 W/m2
22:44 11 °C 11 °C 1015.07 hPa W 7 km/h 6 km/h 98% 0.79 mm 0 W/m2
22:49 11 °C 11 °C 1015.14 hPa NW 8 km/h 6 km/h 98% 0.61 mm 0 W/m2
22:54 11 °C 11 °C 1015.14 hPa NNW 7 km/h 5 km/h 98% 0.79 mm 0 W/m2
22:59 11 °C 11 °C 1015.14 hPa NW 7 km/h 4 km/h 98% 0.79 mm 0 W/m2
23:04 11 °C 11 °C 1015 hPa NNW 7 km/h 5 km/h 98% 0.79 mm 0 W/m2
23:09 11 °C 11 °C 1014.93 hPa WNW 7 km/h 4 km/h 98% 0.79 mm 0 W/m2
23:14 11 °C 11 °C 1014.93 hPa NW 9 km/h 5 km/h 98% 0.79 mm 0 W/m2
23:19 11 °C 11 °C 1014.87 hPa WNW 4 km/h 1 km/h 98% 0.61 mm 0 W/m2
23:24 11 °C 11 °C 1014.87 hPa WNW 6 km/h 5 km/h 98% 0.61 mm 0 W/m2
23:29 11 °C 11 °C 1014.9 hPa NW 5 km/h 6 km/h 98% 0.61 mm 0 W/m2
23:34 11 °C 11 °C 1014.87 hPa WNW 7 km/h 6 km/h 98% 0.61 mm 0 W/m2
23:39 11 °C 11 °C 1014.97 hPa WNW 7 km/h 5 km/h 98% 0.41 mm 0 W/m2
23:44 11 °C 11 °C 1015.04 hPa WNW 9 km/h 5 km/h 98% 0.41 mm 0 W/m2
23:49 11 °C 11 °C 1015.07 hPa NW 10 km/h 7 km/h 98% 0.41 mm 0 W/m2
23:54 11 °C 11 °C 1015.07 hPa NNW 10 km/h 8 km/h 98% 0.41 mm 0 W/m2
23:59 11 °C 11 °C 1015.04 hPa NNW 12 km/h 8 km/h 98% 0.41 mm 0 W/m2
Compliments of Weather Underground - 2 mb